sensor_id;sensor_type;location;lat;lon;timestamp;P1;durP1;ratioP1;P2;durP2;ratioP2
46551;SDS011;32278;51.810;4.712;2024-03-23T00:53:54;20.75;;;4.50;;
46551;SDS011;32278;51.810;4.712;2024-03-23T00:56:20;16.52;;;6.07;;
46551;SDS011;32278;51.810;4.712;2024-03-23T00:58:46;21.90;;;5.85;;
46551;SDS011;32278;51.810;4.712;2024-03-23T01:01:12;19.02;;;5.50;;
46551;SDS011;32278;51.810;4.712;2024-03-23T01:03:38;13.00;;;4.45;;
46551;SDS011;32278;51.810;4.712;2024-03-23T01:06:04;21.75;;;6.03;;
46551;SDS011;32278;51.810;4.712;2024-03-23T01:08:30;25.20;;;6.07;;
46551;SDS011;32278;51.810;4.712;2024-03-23T01:10:56;17.17;;;5.22;;
46551;SDS011;32278;51.810;4.712;2024-03-23T01:13:22;19.00;;;5.25;;
46551;SDS011;32278;51.810;4.712;2024-03-23T01:15:52;18.80;;;4.82;;
46551;SDS011;32278;51.810;4.712;2024-03-23T01:18:18;17.77;;;5.53;;
46551;SDS011;32278;51.810;4.712;2024-03-23T01:20:44;24.38;;;6.72;;
46551;SDS011;32278;51.810;4.712;2024-03-23T01:23:10;17.90;;;5.68;;
46551;SDS011;32278;51.810;4.712;2024-03-23T01:25:36;20.35;;;6.00;;
46551;SDS011;32278;51.810;4.712;2024-03-23T01:28:02;19.63;;;6.50;;
46551;SDS011;32278;51.810;4.712;2024-03-23T01:30:29;18.08;;;6.15;;
46551;SDS011;32278;51.810;4.712;2024-03-23T01:32:55;24.08;;;5.97;;
46551;SDS011;32278;51.810;4.712;2024-03-23T01:35:21;15.52;;;6.30;;
46551;SDS011;32278;51.810;4.712;2024-03-23T01:37:48;23.05;;;6.63;;
46551;SDS011;32278;51.810;4.712;2024-03-23T01:40:14;26.58;;;7.55;;
46551;SDS011;32278;51.810;4.712;2024-03-23T01:42:41;21.88;;;6.32;;
46551;SDS011;32278;51.810;4.712;2024-03-23T01:45:08;20.08;;;7.13;;
46551;SDS011;32278;51.810;4.712;2024-03-23T01:47:35;24.80;;;8.20;;
46551;SDS011;32278;51.810;4.712;2024-03-23T01:50:01;26.63;;;8.63;;
46551;SDS011;32278;51.810;4.712;2024-03-23T01:52:27;35.50;;;9.40;;
46551;SDS011;32278;51.810;4.712;2024-03-23T01:54:53;31.70;;;8.43;;
46551;SDS011;32278;51.810;4.712;2024-03-23T01:57:19;32.17;;;10.10;;
46551;SDS011;32278;51.810;4.712;2024-03-23T01:59:46;31.50;;;10.85;;
46551;SDS011;32278;51.810;4.712;2024-03-23T02:02:12;33.88;;;10.40;;
46551;SDS011;32278;51.810;4.712;2024-03-23T02:04:38;25.60;;;10.57;;
46551;SDS011;32278;51.810;4.712;2024-03-23T02:07:05;26.70;;;11.05;;
46551;SDS011;32278;51.810;4.712;2024-03-23T02:09:32;28.67;;;11.27;;
46551;SDS011;32278;51.810;4.712;2024-03-23T02:11:58;40.03;;;13.13;;
46551;SDS011;32278;51.810;4.712;2024-03-23T02:14:24;25.95;;;12.07;;
46551;SDS011;32278;51.810;4.712;2024-03-23T02:16:50;30.92;;;12.95;;
46551;SDS011;32278;51.810;4.712;2024-03-23T02:19:16;39.10;;;12.43;;
46551;SDS011;32278;51.810;4.712;2024-03-23T02:21:42;41.45;;;14.77;;
46551;SDS011;32278;51.810;4.712;2024-03-23T02:24:08;28.30;;;12.20;;
46551;SDS011;32278;51.810;4.712;2024-03-23T02:26:34;30.55;;;11.45;;
46551;SDS011;32278;51.810;4.712;2024-03-23T02:29:00;38.17;;;13.45;;
46551;SDS011;32278;51.810;4.712;2024-03-23T02:31:26;32.03;;;12.80;;
46551;SDS011;32278;51.810;4.712;2024-03-23T02:33:52;43.92;;;13.38;;
46551;SDS011;32278;51.810;4.712;2024-03-23T02:36:18;34.78;;;12.77;;
46551;SDS011;32278;51.810;4.712;2024-03-23T02:38:46;25.35;;;11.38;;
46551;SDS011;32278;51.810;4.712;2024-03-23T02:41:12;31.25;;;12.50;;
46551;SDS011;32278;51.810;4.712;2024-03-23T02:43:38;33.03;;;11.30;;
46551;SDS011;32278;51.810;4.712;2024-03-23T02:46:04;24.27;;;10.40;;
46551;SDS011;32278;51.810;4.712;2024-03-23T02:48:30;28.83;;;10.95;;
46551;SDS011;32278;51.810;4.712;2024-03-23T02:50:56;28.42;;;10.68;;
46551;SDS011;32278;51.810;4.712;2024-03-23T02:53:22;29.23;;;10.30;;
46551;SDS011;32278;51.810;4.712;2024-03-23T02:55:48;32.45;;;10.65;;
46551;SDS011;32278;51.810;4.712;2024-03-23T02:58:14;25.30;;;9.18;;
46551;SDS011;32278;51.810;4.712;2024-03-23T03:00:40;30.58;;;9.35;;
46551;SDS011;32278;51.810;4.712;2024-03-23T03:03:06;25.98;;;8.68;;
46551;SDS011;32278;51.810;4.712;2024-03-23T03:05:33;23.90;;;7.53;;
46551;SDS011;32278;51.810;4.712;2024-03-23T03:07:59;21.40;;;7.75;;
46551;SDS011;32278;51.810;4.712;2024-03-23T03:10:25;28.08;;;7.63;;
46551;SDS011;32278;51.810;4.712;2024-03-23T03:12:51;23.50;;;7.68;;
46551;SDS011;32278;51.810;4.712;2024-03-23T03:15:17;24.10;;;7.28;;
46551;SDS011;32278;51.810;4.712;2024-03-23T03:17:43;25.30;;;6.85;;
46551;SDS011;32278;51.810;4.712;2024-03-23T03:20:10;24.33;;;7.13;;
46551;SDS011;32278;51.810;4.712;2024-03-23T03:22:38;25.02;;;7.85;;
46551;SDS011;32278;51.810;4.712;2024-03-23T03:25:04;25.42;;;7.72;;
46551;SDS011;32278;51.810;4.712;2024-03-23T03:27:32;23.50;;;7.40;;
46551;SDS011;32278;51.810;4.712;2024-03-23T03:29:58;20.08;;;7.60;;
46551;SDS011;32278;51.810;4.712;2024-03-23T03:32:26;27.58;;;8.13;;
46551;SDS011;32278;51.810;4.712;2024-03-23T03:34:52;23.13;;;7.43;;
46551;SDS011;32278;51.810;4.712;2024-03-23T03:37:19;28.00;;;7.60;;
46551;SDS011;32278;51.810;4.712;2024-03-23T03:39:45;16.45;;;7.78;;
46551;SDS011;32278;51.810;4.712;2024-03-23T03:42:11;24.98;;;7.68;;
46551;SDS011;32278;51.810;4.712;2024-03-23T03:44:37;24.85;;;8.23;;
46551;SDS011;32278;51.810;4.712;2024-03-23T03:47:04;28.00;;;7.78;;
46551;SDS011;32278;51.810;4.712;2024-03-23T03:49:30;27.88;;;8.93;;
46551;SDS011;32278;51.810;4.712;2024-03-23T03:51:56;27.73;;;8.52;;
46551;SDS011;32278;51.810;4.712;2024-03-23T03:54:22;24.70;;;8.25;;
46551;SDS011;32278;51.810;4.712;2024-03-23T03:56:48;21.55;;;8.18;;
46551;SDS011;32278;51.810;4.712;2024-03-23T03:59:15;25.17;;;8.63;;
46551;SDS011;32278;51.810;4.712;2024-03-23T04:01:41;22.48;;;8.30;;
46551;SDS011;32278;51.810;4.712;2024-03-23T04:04:07;21.27;;;7.63;;
46551;SDS011;32278;51.810;4.712;2024-03-23T04:06:33;22.30;;;8.48;;
46551;SDS011;32278;51.810;4.712;2024-03-23T04:09:00;27.73;;;8.63;;
46551;SDS011;32278;51.810;4.712;2024-03-23T04:11:27;27.08;;;9.00;;
46551;SDS011;32278;51.810;4.712;2024-03-23T04:13:53;25.33;;;7.85;;
46551;SDS011;32278;51.810;4.712;2024-03-23T04:16:29;24.23;;;7.90;;
46551;SDS011;32278;51.810;4.712;2024-03-23T04:18:55;27.70;;;8.48;;
46551;SDS011;32278;51.810;4.712;2024-03-23T04:21:24;22.55;;;8.80;;
46551;SDS011;32278;51.810;4.712;2024-03-23T04:23:50;26.25;;;7.97;;
46551;SDS011;32278;51.810;4.712;2024-03-23T04:26:16;25.02;;;8.30;;
46551;SDS011;32278;51.810;4.712;2024-03-23T04:28:42;24.65;;;8.98;;
46551;SDS011;32278;51.810;4.712;2024-03-23T04:31:08;19.40;;;7.30;;
46551;SDS011;32278;51.810;4.712;2024-03-23T04:33:34;22.20;;;6.15;;
46551;SDS011;32278;51.810;4.712;2024-03-23T04:36:00;26.55;;;7.00;;
46551;SDS011;32278;51.810;4.712;2024-03-23T04:38:26;28.88;;;7.75;;
46551;SDS011;32278;51.810;4.712;2024-03-23T04:40:55;23.13;;;6.97;;
46551;SDS011;32278;51.810;4.712;2024-03-23T04:43:22;22.20;;;7.45;;
46551;SDS011;32278;51.810;4.712;2024-03-23T04:45:48;27.85;;;7.35;;
46551;SDS011;32278;51.810;4.712;2024-03-23T04:48:14;20.17;;;7.18;;
46551;SDS011;32278;51.810;4.712;2024-03-23T04:50:40;21.17;;;6.28;;
46551;SDS011;32278;51.810;4.712;2024-03-23T04:53:06;17.88;;;6.20;;
46551;SDS011;32278;51.810;4.712;2024-03-23T04:55:32;16.63;;;6.05;;
46551;SDS011;32278;51.810;4.712;2024-03-23T04:57:58;22.27;;;6.25;;
46551;SDS011;32278;51.810;4.712;2024-03-23T05:00:24;27.80;;;6.97;;
46551;SDS011;32278;51.810;4.712;2024-03-23T05:02:51;18.50;;;5.90;;
46551;SDS011;32278;51.810;4.712;2024-03-23T05:05:18;26.02;;;6.18;;
46551;SDS011;32278;51.810;4.712;2024-03-23T05:07:44;18.65;;;6.50;;
46551;SDS011;32278;51.810;4.712;2024-03-23T05:10:10;20.25;;;5.50;;
46551;SDS011;32278;51.810;4.712;2024-03-23T05:12:39;22.17;;;5.60;;
46551;SDS011;32278;51.810;4.712;2024-03-23T05:15:05;17.75;;;5.72;;
46551;SDS011;32278;51.810;4.712;2024-03-23T05:17:32;25.85;;;5.72;;
46551;SDS011;32278;51.810;4.712;2024-03-23T05:19:59;20.20;;;5.43;;
46551;SDS011;32278;51.810;4.712;2024-03-23T05:22:25;21.10;;;5.40;;
46551;SDS011;32278;51.810;4.712;2024-03-23T05:24:52;17.77;;;5.22;;
46551;SDS011;32278;51.810;4.712;2024-03-23T05:27:18;17.17;;;4.93;;
46551;SDS011;32278;51.810;4.712;2024-03-23T05:29:44;16.13;;;5.93;;
46551;SDS011;32278;51.810;4.712;2024-03-23T05:32:10;17.95;;;5.43;;
46551;SDS011;32278;51.810;4.712;2024-03-23T05:34:36;19.27;;;6.03;;
46551;SDS011;32278;51.810;4.712;2024-03-23T05:37:02;21.08;;;5.78;;
46551;SDS011;32278;51.810;4.712;2024-03-23T05:39:29;26.50;;;5.57;;
46551;SDS011;32278;51.810;4.712;2024-03-23T05:41:55;21.23;;;5.65;;
46551;SDS011;32278;51.810;4.712;2024-03-23T05:44:21;20.67;;;4.60;;
46551;SDS011;32278;51.810;4.712;2024-03-23T05:46:47;20.17;;;4.68;;
46551;SDS011;32278;51.810;4.712;2024-03-23T05:49:16;17.85;;;5.47;;
46551;SDS011;32278;51.810;4.712;2024-03-23T05:51:43;31.83;;;6.28;;
46551;SDS011;32278;51.810;4.712;2024-03-23T05:54:09;25.73;;;6.07;;
46551;SDS011;32278;51.810;4.712;2024-03-23T05:56:35;18.25;;;6.60;;
46551;SDS011;32278;51.810;4.712;2024-03-23T05:59:01;24.75;;;5.30;;
46551;SDS011;32278;51.810;4.712;2024-03-23T06:01:28;19.58;;;6.20;;
46551;SDS011;32278;51.810;4.712;2024-03-23T06:03:57;17.52;;;5.63;;
46551;SDS011;32278;51.810;4.712;2024-03-23T06:06:23;20.67;;;4.65;;
46551;SDS011;32278;51.810;4.712;2024-03-23T06:08:49;21.02;;;4.95;;
46551;SDS011;32278;51.810;4.712;2024-03-23T06:11:15;22.00;;;6.38;;
46551;SDS011;32278;51.810;4.712;2024-03-23T06:13:41;19.05;;;4.95;;
46551;SDS011;32278;51.810;4.712;2024-03-23T06:16:07;17.67;;;4.93;;
46551;SDS011;32278;51.810;4.712;2024-03-23T06:18:33;17.65;;;5.20;;
46551;SDS011;32278;51.810;4.712;2024-03-23T06:20:59;18.70;;;4.55;;
46551;SDS011;32278;51.810;4.712;2024-03-23T06:23:25;21.42;;;4.93;;
46551;SDS011;32278;51.810;4.712;2024-03-23T06:25:51;18.45;;;4.43;;
46551;SDS011;32278;51.810;4.712;2024-03-23T06:28:17;31.58;;;4.30;;
46551;SDS011;32278;51.810;4.712;2024-03-23T06:30:43;23.20;;;5.43;;
46551;SDS011;32278;51.810;4.712;2024-03-23T06:33:09;14.93;;;4.55;;
46551;SDS011;32278;51.810;4.712;2024-03-23T06:35:35;25.13;;;4.45;;
46551;SDS011;32278;51.810;4.712;2024-03-23T06:38:01;16.58;;;4.22;;
46551;SDS011;32278;51.810;4.712;2024-03-23T06:40:27;24.20;;;3.97;;
46551;SDS011;32278;51.810;4.712;2024-03-23T06:42:53;18.83;;;4.40;;
46551;SDS011;32278;51.810;4.712;2024-03-23T06:45:19;24.88;;;4.93;;
46551;SDS011;32278;51.810;4.712;2024-03-23T06:47:48;35.22;;;5.10;;
46551;SDS011;32278;51.810;4.712;2024-03-23T06:50:14;24.25;;;4.43;;
46551;SDS011;32278;51.810;4.712;2024-03-23T06:52:40;17.73;;;3.50;;
46551;SDS011;32278;51.810;4.712;2024-03-23T06:55:07;20.02;;;4.03;;
46551;SDS011;32278;51.810;4.712;2024-03-23T06:57:33;14.68;;;4.75;;
46551;SDS011;32278;51.810;4.712;2024-03-23T06:59:59;22.75;;;6.15;;
46551;SDS011;32278;51.810;4.712;2024-03-23T07:02:25;17.52;;;3.83;;
46551;SDS011;32278;51.810;4.712;2024-03-23T07:04:51;31.20;;;4.15;;
46551;SDS011;32278;51.810;4.712;2024-03-23T07:07:17;18.50;;;3.75;;
46551;SDS011;32278;51.810;4.712;2024-03-23T07:09:43;23.05;;;3.58;;
46551;SDS011;32278;51.810;4.712;2024-03-23T07:12:09;17.13;;;3.47;;
46551;SDS011;32278;51.810;4.712;2024-03-23T07:14:35;23.13;;;5.43;;
46551;SDS011;32278;51.810;4.712;2024-03-23T07:17:01;16.08;;;3.50;;
46551;SDS011;32278;51.810;4.712;2024-03-23T07:19:27;21.10;;;3.88;;
46551;SDS011;32278;51.810;4.712;2024-03-23T07:21:53;21.73;;;3.78;;
46551;SDS011;32278;51.810;4.712;2024-03-23T07:24:19;18.17;;;3.80;;
46551;SDS011;32278;51.810;4.712;2024-03-23T07:26:45;28.13;;;4.47;;
46551;SDS011;32278;51.810;4.712;2024-03-23T07:29:12;18.77;;;3.60;;
46551;SDS011;32278;51.810;4.712;2024-03-23T07:31:38;17.38;;;3.30;;
46551;SDS011;32278;51.810;4.712;2024-03-23T07:34:04;24.88;;;3.65;;
46551;SDS011;32278;51.810;4.712;2024-03-23T07:36:30;25.75;;;5.13;;
46551;SDS011;32278;51.810;4.712;2024-03-23T07:38:57;17.65;;;4.00;;
46551;SDS011;32278;51.810;4.712;2024-03-23T07:41:22;17.75;;;3.55;;
46551;SDS011;32278;51.810;4.712;2024-03-23T07:43:49;11.07;;;3.17;;
46551;SDS011;32278;51.810;4.712;2024-03-23T07:46:15;17.65;;;3.55;;
46551;SDS011;32278;51.810;4.712;2024-03-23T07:48:41;15.00;;;3.45;;
46551;SDS011;32278;51.810;4.712;2024-03-23T07:51:16;18.88;;;3.97;;
46551;SDS011;32278;51.810;4.712;2024-03-23T07:53:43;24.15;;;4.88;;
46551;SDS011;32278;51.810;4.712;2024-03-23T07:56:11;14.10;;;3.67;;
46551;SDS011;32278;51.810;4.712;2024-03-23T07:58:37;18.73;;;4.05;;
46551;SDS011;32278;51.810;4.712;2024-03-23T08:01:04;18.50;;;3.35;;
46551;SDS011;32278;51.810;4.712;2024-03-23T08:03:30;23.20;;;4.43;;
46551;SDS011;32278;51.810;4.712;2024-03-23T08:05:56;20.27;;;4.45;;
46551;SDS011;32278;51.810;4.712;2024-03-23T08:08:22;24.58;;;4.07;;
46551;SDS011;32278;51.810;4.712;2024-03-23T08:10:49;20.30;;;3.75;;
46551;SDS011;32278;51.810;4.712;2024-03-23T08:13:18;17.88;;;4.50;;
46551;SDS011;32278;51.810;4.712;2024-03-23T08:15:44;25.63;;;4.35;;
46551;SDS011;32278;51.810;4.712;2024-03-23T08:18:11;13.07;;;3.75;;
46551;SDS011;32278;51.810;4.712;2024-03-23T08:20:38;15.43;;;4.07;;
46551;SDS011;32278;51.810;4.712;2024-03-23T08:23:07;21.17;;;4.35;;
46551;SDS011;32278;51.810;4.712;2024-03-23T08:25:34;18.15;;;3.83;;
46551;SDS011;32278;51.810;4.712;2024-03-23T08:28:00;18.75;;;3.38;;
46551;SDS011;32278;51.810;4.712;2024-03-23T08:30:26;15.50;;;3.67;;
46551;SDS011;32278;51.810;4.712;2024-03-23T08:32:52;21.52;;;3.95;;
46551;SDS011;32278;51.810;4.712;2024-03-23T08:35:18;20.08;;;3.25;;
46551;SDS011;32278;51.810;4.712;2024-03-23T08:37:45;18.77;;;3.80;;
46551;SDS011;32278;51.810;4.712;2024-03-23T08:40:11;16.95;;;3.95;;
46551;SDS011;32278;51.810;4.712;2024-03-23T08:42:37;14.45;;;3.53;;
46551;SDS011;32278;51.810;4.712;2024-03-23T08:45:03;19.00;;;3.90;;
46551;SDS011;32278;51.810;4.712;2024-03-23T08:47:33;10.50;;;3.15;;
46551;SDS011;32278;51.810;4.712;2024-03-23T08:49:59;17.13;;;3.97;;
46551;SDS011;32278;51.810;4.712;2024-03-23T08:52:25;15.30;;;3.75;;
46551;SDS011;32278;51.810;4.712;2024-03-23T08:54:53;24.20;;;3.88;;
46551;SDS011;32278;51.810;4.712;2024-03-23T08:57:20;17.80;;;3.78;;
46551;SDS011;32278;51.810;4.712;2024-03-23T08:59:46;21.30;;;4.82;;
46551;SDS011;32278;51.810;4.712;2024-03-23T09:02:12;13.80;;;3.72;;
46551;SDS011;32278;51.810;4.712;2024-03-23T09:04:38;11.45;;;3.75;;
46551;SDS011;32278;51.810;4.712;2024-03-23T09:07:04;16.38;;;3.20;;
46551;SDS011;32278;51.810;4.712;2024-03-23T09:09:30;16.20;;;3.88;;
46551;SDS011;32278;51.810;4.712;2024-03-23T09:11:56;10.30;;;3.30;;
46551;SDS011;32278;51.810;4.712;2024-03-23T09:14:22;17.98;;;3.70;;
46551;SDS011;32278;51.810;4.712;2024-03-23T09:16:51;18.25;;;4.07;;
46551;SDS011;32278;51.810;4.712;2024-03-23T09:19:17;21.40;;;4.13;;
46551;SDS011;32278;51.810;4.712;2024-03-23T09:21:43;15.98;;;4.55;;
46551;SDS011;32278;51.810;4.712;2024-03-23T09:24:09;16.23;;;3.88;;
46551;SDS011;32278;51.810;4.712;2024-03-23T09:26:35;18.17;;;4.90;;
46551;SDS011;32278;51.810;4.712;2024-03-23T09:29:01;16.20;;;4.28;;
46551;SDS011;32278;51.810;4.712;2024-03-23T09:31:28;23.95;;;3.95;;
46551;SDS011;32278;51.810;4.712;2024-03-23T09:33:54;13.23;;;3.67;;
46551;SDS011;32278;51.810;4.712;2024-03-23T09:36:20;17.83;;;3.42;;
46551;SDS011;32278;51.810;4.712;2024-03-23T09:38:46;11.65;;;3.70;;
46551;SDS011;32278;51.810;4.712;2024-03-23T09:41:12;21.77;;;4.53;;
46551;SDS011;32278;51.810;4.712;2024-03-23T09:43:40;14.15;;;3.63;;
46551;SDS011;32278;51.810;4.712;2024-03-23T09:46:06;14.65;;;3.50;;
46551;SDS011;32278;51.810;4.712;2024-03-23T09:48:33;14.32;;;5.05;;
46551;SDS011;32278;51.810;4.712;2024-03-23T09:50:59;21.55;;;5.53;;
46551;SDS011;32278;51.810;4.712;2024-03-23T09:53:25;18.02;;;4.45;;
46551;SDS011;32278;51.810;4.712;2024-03-23T09:55:51;22.77;;;4.70;;
46551;SDS011;32278;51.810;4.712;2024-03-23T09:58:18;9.15;;;3.70;;
46551;SDS011;32278;51.810;4.712;2024-03-23T10:00:44;14.02;;;4.20;;
46551;SDS011;32278;51.810;4.712;2024-03-23T10:03:10;15.98;;;4.50;;
46551;SDS011;32278;51.810;4.712;2024-03-23T10:05:36;17.27;;;4.88;;
46551;SDS011;32278;51.810;4.712;2024-03-23T10:10:41;13.32;;;4.00;;
46551;SDS011;32278;51.810;4.712;2024-03-23T10:13:07;14.98;;;4.63;;
46551;SDS011;32278;51.810;4.712;2024-03-23T10:15:34;11.70;;;3.70;;
46551;SDS011;32278;51.810;4.712;2024-03-23T10:20:41;13.02;;;4.97;;
46551;SDS011;32278;51.810;4.712;2024-03-23T10:23:15;11.73;;;3.78;;
46551;SDS011;32278;51.810;4.712;2024-03-23T10:25:41;20.17;;;4.35;;
46551;SDS011;32278;51.810;4.712;2024-03-23T10:28:07;15.30;;;3.88;;
46551;SDS011;32278;51.810;4.712;2024-03-23T10:30:34;15.65;;;3.63;;
46551;SDS011;32278;51.810;4.712;2024-03-23T10:33:10;13.20;;;2.75;;
46551;SDS011;32278;51.810;4.712;2024-03-23T10:35:36;18.45;;;3.70;;
46551;SDS011;32278;51.810;4.712;2024-03-23T10:38:06;9.60;;;2.88;;
46551;SDS011;32278;51.810;4.712;2024-03-23T10:40:35;14.70;;;2.88;;
46551;SDS011;32278;51.810;4.712;2024-03-23T10:43:01;10.27;;;2.83;;
46551;SDS011;32278;51.810;4.712;2024-03-23T10:45:28;16.15;;;3.08;;
46551;SDS011;32278;51.810;4.712;2024-03-23T10:47:54;20.67;;;5.28;;
46551;SDS011;32278;51.810;4.712;2024-03-23T10:50:21;16.42;;;3.20;;
46551;SDS011;32278;51.810;4.712;2024-03-23T10:52:47;13.13;;;3.50;;
46551;SDS011;32278;51.810;4.712;2024-03-23T10:55:13;16.42;;;4.30;;
46551;SDS011;32278;51.810;4.712;2024-03-23T10:57:41;13.85;;;2.90;;
46551;SDS011;32278;51.810;4.712;2024-03-23T11:00:08;17.70;;;2.95;;
46551;SDS011;32278;51.810;4.712;2024-03-23T11:02:35;15.63;;;3.13;;
46551;SDS011;32278;51.810;4.712;2024-03-23T11:05:01;11.15;;;3.15;;
46551;SDS011;32278;51.810;4.712;2024-03-23T11:07:28;14.05;;;3.42;;
46551;SDS011;32278;51.810;4.712;2024-03-23T11:09:55;17.23;;;3.15;;
46551;SDS011;32278;51.810;4.712;2024-03-23T11:14:48;15.07;;;3.92;;
46551;SDS011;32278;51.810;4.712;2024-03-23T11:17:18;16.50;;;3.20;;
46551;SDS011;32278;51.810;4.712;2024-03-23T11:19:44;17.58;;;3.08;;
46551;SDS011;32278;51.810;4.712;2024-03-23T11:22:37;14.57;;;3.25;;
46551;SDS011;32278;51.810;4.712;2024-03-23T11:25:17;22.65;;;3.42;;
46551;SDS011;32278;51.810;4.712;2024-03-23T11:27:45;12.82;;;3.00;;
46551;SDS011;32278;51.810;4.712;2024-03-23T11:30:16;18.65;;;3.72;;
46551;SDS011;32278;51.810;4.712;2024-03-23T11:32:43;13.95;;;2.95;;
46551;SDS011;32278;51.810;4.712;2024-03-23T11:35:09;13.38;;;3.67;;
46551;SDS011;32278;51.810;4.712;2024-03-23T11:37:36;15.38;;;3.15;;
46551;SDS011;32278;51.810;4.712;2024-03-23T11:40:18;17.15;;;4.03;;
46551;SDS011;32278;51.810;4.712;2024-03-23T11:42:44;13.38;;;2.83;;
46551;SDS011;32278;51.810;4.712;2024-03-23T11:45:10;8.80;;;2.50;;
46551;SDS011;32278;51.810;4.712;2024-03-23T11:47:37;13.38;;;3.33;;
46551;SDS011;32278;51.810;4.712;2024-03-23T11:50:03;19.85;;;3.05;;
46551;SDS011;32278;51.810;4.712;2024-03-23T11:52:29;12.45;;;2.88;;
46551;SDS011;32278;51.810;4.712;2024-03-23T11:55:05;12.00;;;2.92;;
46551;SDS011;32278;51.810;4.712;2024-03-23T11:57:32;10.95;;;3.20;;
46551;SDS011;32278;51.810;4.712;2024-03-23T11:59:59;12.25;;;3.08;;
46551;SDS011;32278;51.810;4.712;2024-03-23T12:02:25;12.40;;;3.00;;
46551;SDS011;32278;51.810;4.712;2024-03-23T12:04:51;12.02;;;2.92;;
46551;SDS011;32278;51.810;4.712;2024-03-23T12:07:20;15.88;;;3.28;;
46551;SDS011;32278;51.810;4.712;2024-03-23T12:09:47;12.35;;;2.55;;
46551;SDS011;32278;51.810;4.712;2024-03-23T12:12:17;17.65;;;3.38;;
46551;SDS011;32278;51.810;4.712;2024-03-23T12:15:00;15.52;;;2.88;;
46551;SDS011;32278;51.810;4.712;2024-03-23T12:17:26;13.55;;;3.10;;
46551;SDS011;32278;51.810;4.712;2024-03-23T12:19:52;15.57;;;3.08;;
46551;SDS011;32278;51.810;4.712;2024-03-23T12:22:21;13.90;;;3.50;;
46551;SDS011;32278;51.810;4.712;2024-03-23T12:24:48;15.13;;;2.90;;
46551;SDS011;32278;51.810;4.712;2024-03-23T12:27:14;11.02;;;2.97;;
46551;SDS011;32278;51.810;4.712;2024-03-23T12:29:40;15.93;;;4.10;;
46551;SDS011;32278;51.810;4.712;2024-03-23T12:32:12;12.75;;;2.92;;
46551;SDS011;32278;51.810;4.712;2024-03-23T12:34:39;9.35;;;2.30;;
46551;SDS011;32278;51.810;4.712;2024-03-23T12:37:06;15.93;;;2.85;;
46551;SDS011;32278;51.810;4.712;2024-03-23T12:39:32;10.98;;;2.53;;
46551;SDS011;32278;51.810;4.712;2024-03-23T12:42:00;13.57;;;3.13;;
46551;SDS011;32278;51.810;4.712;2024-03-23T12:44:26;14.48;;;3.50;;
46551;SDS011;32278;51.810;4.712;2024-03-23T12:46:52;17.15;;;3.20;;
46551;SDS011;32278;51.810;4.712;2024-03-23T12:49:18;12.18;;;2.40;;
46551;SDS011;32278;51.810;4.712;2024-03-23T12:51:47;14.32;;;2.83;;
46551;SDS011;32278;51.810;4.712;2024-03-23T12:54:13;15.98;;;2.85;;
46551;SDS011;32278;51.810;4.712;2024-03-23T12:56:39;12.52;;;2.70;;
46551;SDS011;32278;51.810;4.712;2024-03-23T12:59:05;13.27;;;2.85;;
46551;SDS011;32278;51.810;4.712;2024-03-23T13:01:32;12.18;;;3.10;;
46551;SDS011;32278;51.810;4.712;2024-03-23T13:03:58;9.13;;;2.78;;
46551;SDS011;32278;51.810;4.712;2024-03-23T13:06:25;13.65;;;3.35;;
46551;SDS011;32278;51.810;4.712;2024-03-23T13:08:52;10.07;;;2.47;;
46551;SDS011;32278;51.810;4.712;2024-03-23T13:11:19;11.82;;;2.35;;
46551;SDS011;32278;51.810;4.712;2024-03-23T13:13:45;19.38;;;2.97;;
46551;SDS011;32278;51.810;4.712;2024-03-23T13:16:11;16.77;;;2.97;;
46551;SDS011;32278;51.810;4.712;2024-03-23T13:18:37;10.98;;;2.97;;
46551;SDS011;32278;51.810;4.712;2024-03-23T13:21:03;13.65;;;3.00;;
46551;SDS011;32278;51.810;4.712;2024-03-23T13:23:29;14.73;;;2.58;;
46551;SDS011;32278;51.810;4.712;2024-03-23T13:25:56;7.95;;;2.72;;
46551;SDS011;32278;51.810;4.712;2024-03-23T13:28:22;12.45;;;2.42;;
46551;SDS011;32278;51.810;4.712;2024-03-23T13:30:55;12.60;;;2.33;;
46551;SDS011;32278;51.810;4.712;2024-03-23T13:33:21;16.13;;;3.28;;
46551;SDS011;32278;51.810;4.712;2024-03-23T13:35:54;8.40;;;2.60;;
46551;SDS011;32278;51.810;4.712;2024-03-23T13:38:21;13.27;;;3.45;;
46551;SDS011;32278;51.810;4.712;2024-03-23T13:43:16;15.60;;;2.58;;
46551;SDS011;32278;51.810;4.712;2024-03-23T13:45:42;7.10;;;1.92;;
46551;SDS011;32278;51.810;4.712;2024-03-23T13:48:08;12.63;;;2.25;;
46551;SDS011;32278;51.810;4.712;2024-03-23T13:50:35;15.27;;;3.10;;
46551;SDS011;32278;51.810;4.712;2024-03-23T13:53:01;15.75;;;3.35;;
46551;SDS011;32278;51.810;4.712;2024-03-23T13:55:27;15.20;;;2.28;;
46551;SDS011;32278;51.810;4.712;2024-03-23T13:57:53;11.88;;;2.72;;
46551;SDS011;32278;51.810;4.712;2024-03-23T14:00:19;15.73;;;2.45;;
46551;SDS011;32278;51.810;4.712;2024-03-23T14:02:45;10.88;;;2.22;;
46551;SDS011;32278;51.810;4.712;2024-03-23T14:05:12;15.20;;;2.80;;
46551;SDS011;32278;51.810;4.712;2024-03-23T14:07:38;10.80;;;2.10;;
46551;SDS011;32278;51.810;4.712;2024-03-23T14:10:04;13.25;;;2.35;;
46551;SDS011;32278;51.810;4.712;2024-03-23T14:12:31;16.08;;;2.78;;
46551;SDS011;32278;51.810;4.712;2024-03-23T14:14:57;3.58;;;1.40;;
46551;SDS011;32278;51.810;4.712;2024-03-23T14:17:23;3.63;;;0.98;;
46551;SDS011;32278;51.810;4.712;2024-03-23T14:19:51;2.35;;;0.77;;
46551;SDS011;32278;51.810;4.712;2024-03-23T14:22:17;5.13;;;1.10;;
46551;SDS011;32278;51.810;4.712;2024-03-23T14:24:46;8.30;;;1.50;;
46551;SDS011;32278;51.810;4.712;2024-03-23T14:27:12;9.77;;;1.75;;
46551;SDS011;32278;51.810;4.712;2024-03-23T14:29:38;2.88;;;1.08;;
46551;SDS011;32278;51.810;4.712;2024-03-23T14:32:04;5.18;;;0.60;;
46551;SDS011;32278;51.810;4.712;2024-03-23T14:34:30;2.88;;;1.02;;
46551;SDS011;32278;51.810;4.712;2024-03-23T14:36:56;2.17;;;0.80;;
46551;SDS011;32278;51.810;4.712;2024-03-23T14:39:23;2.50;;;0.80;;
46551;SDS011;32278;51.810;4.712;2024-03-23T14:41:50;4.15;;;1.20;;
46551;SDS011;32278;51.810;4.712;2024-03-23T14:44:16;9.02;;;1.20;;
46551;SDS011;32278;51.810;4.712;2024-03-23T14:46:42;4.95;;;1.20;;
46551;SDS011;32278;51.810;4.712;2024-03-23T14:49:08;2.78;;;0.93;;
46551;SDS011;32278;51.810;4.712;2024-03-23T14:51:34;2.88;;;0.88;;
46551;SDS011;32278;51.810;4.712;2024-03-23T14:54:00;5.90;;;1.45;;
46551;SDS011;32278;51.810;4.712;2024-03-23T14:56:27;6.72;;;1.45;;
46551;SDS011;32278;51.810;4.712;2024-03-23T14:58:53;5.30;;;1.30;;
46551;SDS011;32278;51.810;4.712;2024-03-23T15:01:20;12.15;;;2.30;;
46551;SDS011;32278;51.810;4.712;2024-03-23T15:03:46;5.15;;;1.98;;
46551;SDS011;32278;51.810;4.712;2024-03-23T15:06:12;6.20;;;1.70;;
46551;SDS011;32278;51.810;4.712;2024-03-23T15:08:38;5.43;;;1.30;;
46551;SDS011;32278;51.810;4.712;2024-03-23T15:11:07;3.53;;;1.40;;
46551;SDS011;32278;51.810;4.712;2024-03-23T15:13:37;4.57;;;1.08;;
46551;SDS011;32278;51.810;4.712;2024-03-23T15:16:03;4.53;;;1.05;;
46551;SDS011;32278;51.810;4.712;2024-03-23T15:18:30;1.30;;;0.80;;
46551;SDS011;32278;51.810;4.712;2024-03-23T15:20:57;2.58;;;0.50;;
46551;SDS011;32278;51.810;4.712;2024-03-23T15:23:27;3.95;;;0.80;;
46551;SDS011;32278;51.810;4.712;2024-03-23T15:25:53;3.58;;;1.63;;
46551;SDS011;32278;51.810;4.712;2024-03-23T15:28:19;2.67;;;0.60;;
46551;SDS011;32278;51.810;4.712;2024-03-23T15:30:45;4.10;;;0.60;;
46551;SDS011;32278;51.810;4.712;2024-03-23T15:33:11;3.00;;;0.95;;
46551;SDS011;32278;51.810;4.712;2024-03-23T15:35:37;3.42;;;1.15;;